Main page
METAR-TAF:

METAR-TAF

Airports :

Lleida-Alguaire

Lleida, Spain

latitude: 41-43-40N, longitude: 000-32-09E, elevation: 350 m

Current weather observation

The report was made 21 minutes ago, at 20:00 UTC
Wind 9 kt from the East, varying between Northeast and East/Southeast
Temperature 2°C
Humidity 87%
Pressure 1027 hPa
Visibility: 9000 m

METAR: LEDA 212000Z AUTO 08009KT 040V110 9000 NCD 02/00 Q1027

Time: 21:21 (20:21 UTC)


TAF: missing

Weather observations and forecasts of more than 4000 airports (METAR and TAF reports).

The available stations are represented by yellow and red dots on the map.

Hover mouse over dot to see the name of the station.

Then click to see weather observations and forecasts.

To change the map : click on the green buttons with a black cross to zoom in, on the green button with a dash to zoom out, or on the green arrows for adjacent maps.


METAR-TAF: